Time;durP1;ratioP1;P1;durP2;ratioP2;P2;SDS_P1;SDS_P2;PMS_P1;PMS_P2;Temp;Humidity;BMP_temperature;BMP_pressure;BME280_temperature;BME280_humidity;BME280_pressure;Samples;Min_cycle;Max_cycle;Signal;HPM_P1;HPM_P2
2022/02/16 00:02:11;;;;;;;2.20;1.30;;;0.90;99.90;;;;;;5035815;28;20185;-77
2022/02/16 00:04:38;;;;;;;1.50;1.10;;;0.90;99.90;;;;;;5035360;28;20175;-78
2022/02/16 00:07:04;;;;;;;1.50;1.20;;;0.90;99.90;;;;;;5035187;28;20423;-78
2022/02/16 00:09:31;;;;;;;2.87;1.13;;;0.80;99.90;;;;;;5036727;28;20252;-78
2022/02/16 00:11:56;;;;;;;3.47;1.20;;;0.80;99.90;;;;;;5034946;28;20428;-78
2022/02/16 00:14:22;;;;;;;1.63;1.10;;;0.80;99.90;;;;;;5036122;28;20470;-78
2022/02/16 00:16:48;;;;;;;3.43;1.23;;;0.90;99.90;;;;;;5035855;28;20170;-78
2022/02/16 00:19:14;;;;;;;1.20;1.00;;;0.90;99.90;;;;;;5035619;28;20288;-78
2022/02/16 00:21:39;;;;;;;3.20;1.30;;;1.10;99.90;;;;;;5035900;28;20308;-78
2022/02/16 00:24:05;;;;;;;1.83;1.27;;;1.10;99.90;;;;;;5035862;28;20245;-78
2022/02/16 00:26:31;;;;;;;0.90;0.90;;;1.20;99.90;;;;;;5036345;28;20166;-78
2022/02/16 00:28:57;;;;;;;1.70;1.03;;;1.30;99.90;;;;;;5035814;28;20197;-78
2022/02/16 00:31:22;;;;;;;0.80;0.77;;;1.30;99.90;;;;;;5034605;28;20198;-78
2022/02/16 00:33:48;;;;;;;1.00;0.97;;;1.30;99.90;;;;;;5035076;28;20228;-78
2022/02/16 00:36:14;;;;;;;1.30;0.90;;;1.50;99.90;;;;;;5036060;28;20663;-78
2022/02/16 00:38:39;;;;;;;0.80;0.80;;;1.30;99.90;;;;;;5037221;28;20570;-77
2022/02/16 00:41:05;;;;;;;2.43;1.00;;;1.30;99.90;;;;;;5036958;28;20614;-78
2022/02/16 00:43:31;;;;;;;2.77;0.83;;;1.30;99.90;;;;;;5035332;28;20268;-78
2022/02/16 00:45:56;;;;;;;3.03;0.70;;;1.30;99.90;;;;;;5034796;28;20185;-78
2022/02/16 00:48:22;;;;;;;1.07;0.97;;;1.30;99.90;;;;;;5034662;28;20190;-78
2022/02/16 00:50:48;;;;;;;3.40;1.20;;;1.30;99.90;;;;;;5034084;28;20186;-77
2022/02/16 00:53:13;;;;;;;1.20;0.80;;;1.30;99.90;;;;;;5035578;28;20237;-77
2022/02/16 00:55:39;;;;;;;1.20;0.80;;;1.20;99.90;;;;;;5033473;28;20786;-77
2022/02/16 00:58:05;;;;;;;1.13;1.00;;;1.20;99.90;;;;;;5034934;28;20202;-77
2022/02/16 01:00:32;;;;;;;1.00;0.90;;;1.50;99.90;;;;;;5034702;28;20189;-77
2022/02/16 01:02:58;;;;;;;0.90;0.80;;;1.10;99.90;;;;;;5034282;28;20416;-77
2022/02/16 01:05:24;;;;;;;1.60;0.80;;;1.00;99.90;;;;;;5034153;28;20411;-77
2022/02/16 01:07:50;;;;;;;1.30;1.10;;;1.00;99.90;;;;;;5035113;28;20268;-78
2022/02/16 01:10:16;;;;;;;0.90;0.77;;;1.00;99.90;;;;;;5033975;28;20233;-78
2022/02/16 01:12:42;;;;;;;0.90;0.70;;;1.10;99.90;;;;;;5035222;28;20263;-78
2022/02/16 01:15:08;;;;;;;1.27;0.80;;;1.20;99.90;;;;;;5035126;28;20440;-78
2022/02/16 01:17:34;;;;;;;1.23;0.80;;;1.10;99.90;;;;;;5037083;28;20204;-78
2022/02/16 01:19:59;;;;;;;1.00;0.90;;;1.10;99.90;;;;;;5037256;28;20437;-78
2022/02/16 01:22:25;;;;;;;1.20;1.10;;;1.20;99.90;;;;;;5036023;28;20232;-78
2022/02/16 01:24:51;;;;;;;0.70;0.70;;;1.20;99.90;;;;;;5035187;28;20181;-77
2022/02/16 01:27:17;;;;;;;2.00;1.03;;;1.20;99.90;;;;;;5035315;28;20265;-78
2022/02/16 01:29:43;;;;;;;1.43;0.90;;;1.20;99.90;;;;;;5035847;28;20460;-78
2022/02/16 01:32:09;;;;;;;2.40;1.10;;;1.10;99.90;;;;;;5033908;28;20595;-78
2022/02/16 01:34:34;;;;;;;2.00;1.00;;;1.00;99.90;;;;;;5035696;28;20542;-77
2022/02/16 01:37:00;;;;;;;1.77;1.10;;;0.90;99.90;;;;;;5035667;28;20182;-77
2022/02/16 01:39:25;;;;;;;1.93;0.90;;;0.80;99.90;;;;;;5034503;28;20213;-78
2022/02/16 01:41:53;;;;;;;2.10;1.30;;;1.10;99.90;;;;;;5036287;28;20178;-78
2022/02/16 01:44:20;;;;;;;1.90;1.17;;;0.80;99.90;;;;;;5035338;28;20166;-78
2022/02/16 01:46:50;;;;;;;1.23;0.87;;;1.20;99.90;;;;;;5035188;28;20420;-78
2022/02/16 01:49:16;;;;;;;1.40;1.00;;;0.70;99.90;;;;;;5033486;28;20455;-78
2022/02/16 01:51:42;;;;;;;1.60;1.10;;;0.60;99.90;;;;;;5033651;28;20420;-77
2022/02/16 01:54:09;;;;;;;2.33;0.90;;;0.60;99.90;;;;;;5038477;28;20178;-78
2022/02/16 01:56:36;;;;;;;1.50;1.17;;;0.80;99.90;;;;;;5034139;28;20182;-78
2022/02/16 01:59:01;;;;;;;1.10;1.00;;;0.50;99.90;;;;;;5035466;28;20555;-78
2022/02/16 02:01:27;;;;;;;1.33;1.03;;;0.60;99.90;;;;;;5035498;28;20246;-78
2022/02/16 02:03:55;;;;;;;1.17;0.90;;;0.50;99.90;;;;;;5034452;28;20248;-78
2022/02/16 02:06:21;;;;;;;1.00;0.90;;;0.50;99.90;;;;;;5033608;28;20189;-78
2022/02/16 02:08:46;;;;;;;1.10;0.90;;;0.50;99.90;;;;;;5035320;28;20791;-78
2022/02/16 02:11:12;;;;;;;0.73;0.73;;;0.40;99.90;;;;;;5035314;28;20223;-78
2022/02/16 02:13:38;;;;;;;1.20;1.10;;;0.40;99.90;;;;;;5034955;28;20167;-78
2022/02/16 02:16:04;;;;;;;0.87;0.70;;;0.40;99.90;;;;;;5034662;28;20182;-77
2022/02/16 02:18:29;;;;;;;1.90;0.90;;;0.30;99.90;;;;;;5035197;28;20237;-78
2022/02/16 02:20:55;;;;;;;0.70;0.70;;;0.40;99.90;;;;;;5035641;28;20413;-77
2022/02/16 02:23:20;;;;;;;1.23;0.80;;;0.30;99.90;;;;;;5035696;28;20558;-78
2022/02/16 02:25:51;;;;;;;0.90;0.80;;;0.40;99.90;;;;;;5035486;28;20178;-78
2022/02/16 02:28:19;;;;;;;0.80;0.80;;;0.30;99.90;;;;;;5035293;28;20269;-78
2022/02/16 02:30:46;;;;;;;1.07;0.73;;;0.30;99.90;;;;;;5035264;28;20417;-78
2022/02/16 02:33:13;;;;;;;1.43;0.80;;;0.30;99.90;;;;;;5034085;28;20819;-78
2022/02/16 02:35:38;;;;;;;0.70;0.70;;;0.40;99.90;;;;;;5033972;28;20927;-78
2022/02/16 02:38:05;;;;;;;1.10;0.83;;;2.30;99.90;;;;;;5034778;28;20456;-78
2022/02/16 02:40:30;;;;;;;1.00;0.80;;;0.40;99.90;;;;;;5037503;28;20251;-78
2022/02/16 02:42:56;;;;;;;1.40;0.70;;;0.40;99.90;;;;;;5037420;28;20511;-78
2022/02/16 02:45:22;;;;;;;0.73;0.73;;;0.50;99.90;;;;;;5038438;28;20178;-78
2022/02/16 02:47:48;;;;;;;0.97;0.70;;;0.50;99.90;;;;;;5037144;28;20185;-78
2022/02/16 02:50:14;;;;;;;0.80;0.80;;;0.40;99.90;;;;;;5038072;28;20205;-78
2022/02/16 02:52:39;;;;;;;1.00;0.80;;;0.50;99.90;;;;;;5038943;28;20178;-78
2022/02/16 02:55:08;;;;;;;0.70;0.70;;;0.40;99.90;;;;;;5037460;28;20184;-78
2022/02/16 02:57:34;;;;;;;1.13;0.77;;;0.40;99.90;;;;;;5040426;28;20174;-78
2022/02/16 03:00:00;;;;;;;0.57;0.57;;;0.50;99.90;;;;;;5038928;28;20451;-78
2022/02/16 03:02:26;;;;;;;0.60;0.60;;;0.50;99.90;;;;;;5039762;28;20178;-78
2022/02/16 03:04:52;;;;;;;1.77;0.70;;;0.50;99.90;;;;;;5037000;28;20945;-78
2022/02/16 03:07:17;;;;;;;0.60;0.60;;;0.40;99.90;;;;;;5036739;28;20182;-78
2022/02/16 03:09:43;;;;;;;0.60;0.60;;;;;;;;;;5038293;28;20202;-77
2022/02/16 03:12:09;;;;;;;0.60;0.60;;;0.20;99.90;;;;;;5037989;28;20278;-77
2022/02/16 03:14:35;;;;;;;1.23;0.80;;;0.40;99.90;;;;;;5037545;28;20246;-78
2022/02/16 03:17:02;;;;;;;0.70;0.70;;;0.40;99.90;;;;;;5036179;28;20175;-78
2022/02/16 09:10:46;;;;;;;0.80;0.80;;;6.00;99.90;;;;;;5112239;27;20283;-76
2022/02/16 09:13:11;;;;;;;0.70;0.70;;;6.10;99.90;;;;;;5111631;28;20170;-77
2022/02/16 09:15:37;;;;;;;0.70;0.70;;;6.10;99.90;;;;;;5111265;28;20678;-77
2022/02/16 09:18:05;;;;;;;0.70;0.70;;;6.20;99.90;;;;;;5111462;28;20173;-76
2022/02/16 09:20:31;;;;;;;0.80;0.80;;;6.20;99.90;;;;;;5092970;28;20757;-76
2022/02/16 09:22:56;;;;;;;3.43;0.90;;;6.20;99.90;;;;;;5111129;28;20653;-77
2022/02/16 09:25:22;;;;;;;1.33;1.20;;;6.20;99.90;;;;;;5093014;28;20288;-77
2022/02/16 09:27:48;;;;;;;2.00;0.80;;;6.20;99.90;;;;;;5111215;28;20512;-77
2022/02/16 09:30:14;;;;;;;0.80;0.80;;;6.20;99.90;;;;;;5092919;28;20320;-76
2022/02/16 09:32:40;;;;;;;0.90;0.90;;;6.40;99.90;;;;;;5111190;28;20200;-77
2022/02/16 09:35:06;;;;;;;1.63;1.20;;;6.40;99.90;;;;;;5111009;28;20176;-77
2022/02/16 09:37:32;;;;;;;1.13;1.07;;;6.40;99.90;;;;;;5111075;28;20251;-77
2022/02/16 09:39:58;;;;;;;1.33;1.23;;;6.30;99.90;;;;;;5110742;28;20216;-77
2022/02/16 09:42:24;;;;;;;9.70;1.20;;;6.40;99.90;;;;;;5110775;28;20205;-77
2022/02/16 09:45:01;;;;;;;1.20;1.10;;;6.50;99.90;;;;;;5110642;28;20201;-77
2022/02/16 09:47:30;;;;;;;0.83;0.83;;;6.60;99.90;;;;;;5110876;28;20184;-77
2022/02/16 09:49:57;;;;;;;1.17;1.07;;;6.50;99.90;;;;;;5110552;28;20206;-76
2022/02/16 09:52:23;;;;;;;1.27;0.97;;;6.60;99.90;;;;;;5110619;28;20164;-77
2022/02/16 09:54:50;;;;;;;0.90;0.90;;;6.50;99.90;;;;;;5092190;28;20172;-76
2022/02/16 09:57:16;;;;;;;3.13;1.10;;;6.60;99.90;;;;;;5110932;28;20527;-76
2022/02/16 09:59:42;;;;;;;0.90;0.90;;;6.60;99.90;;;;;;5110354;28;20191;-77
2022/02/16 10:02:12;;;;;;;1.10;0.70;;;6.50;99.90;;;;;;5110465;28;20168;-77
2022/02/16 10:04:40;;;;;;;0.80;0.80;;;6.60;99.90;;;;;;5092016;28;20551;-76
2022/02/16 10:07:22;;;;;;;1.23;1.00;;;6.60;99.90;;;;;;5110347;28;20183;-77
2022/02/16 10:09:47;;;;;;;1.70;0.97;;;6.60;99.90;;;;;;5091858;28;20219;-77
2022/02/16 10:12:13;;;;;;;1.00;0.90;;;6.60;99.90;;;;;;5110247;28;20576;-77
2022/02/16 10:14:40;;;;;;;1.73;1.20;;;6.50;99.90;;;;;;5110070;28;20168;-77
2022/02/16 10:17:26;;;;;;;0.90;0.90;;;6.60;99.90;;;;;;5110326;28;20164;-77
2022/02/16 10:19:57;;;;;;;1.00;0.93;;;6.70;99.90;;;;;;5109899;28;20194;-76
2022/02/16 10:22:25;;;;;;;1.03;1.03;;;6.70;99.90;;;;;;5096940;28;20164;-77
2022/02/16 10:24:52;;;;;;;1.90;0.90;;;6.60;99.90;;;;;;5079056;28;20188;-77
2022/02/16 10:27:18;;;;;;;0.87;0.87;;;6.50;99.90;;;;;;5098638;28;20173;-76
2022/02/16 10:29:45;;;;;;;1.00;1.00;;;6.50;99.90;;;;;;5098975;28;20203;-77
2022/02/16 10:32:24;;;;;;;0.83;0.83;;;6.50;99.90;;;;;;5096347;28;20190;-76
2022/02/16 10:34:51;;;;;;;0.80;0.80;;;6.60;99.90;;;;;;5096252;28;20183;-76
2022/02/16 10:37:31;;;;;;;1.00;0.80;;;6.60;99.90;;;;;;5096292;28;20710;-76
2022/02/16 10:40:12;;;;;;;1.00;1.00;;;6.70;99.90;;;;;;5078558;28;20204;-76
2022/02/16 10:42:52;;;;;;;1.23;1.17;;;6.70;99.90;;;;;;5096700;28;20218;-77
2022/02/16 10:45:21;;;;;;;1.10;1.00;;;6.60;99.90;;;;;;5098152;28;20152;-78
2022/02/16 10:48:05;;;;;;;1.23;1.00;;;6.50;99.90;;;;;;5080889;28;20187;-77
2022/02/16 10:50:50;;;;;;;0.80;0.80;;;6.40;99.90;;;;;;5096714;28;20231;-77
2022/02/16 10:53:29;;;;;;;0.63;0.63;;;6.40;99.90;;;;;;5097257;28;20172;-77
2022/02/16 10:55:55;;;;;;;0.90;0.90;;;6.30;99.90;;;;;;5096463;28;20178;-77
2022/02/16 10:58:23;;;;;;;0.70;0.70;;;6.30;99.90;;;;;;5097789;28;20173;-78
2022/02/16 11:00:54;;;;;;;0.80;0.80;;;6.30;99.90;;;;;;5096469;28;20178;-78
2022/02/16 11:03:31;;;;;;;0.90;0.90;;;6.40;99.90;;;;;;5079447;28;20164;-78
2022/02/16 11:05:59;;;;;;;1.00;0.90;;;6.30;99.90;;;;;;5097625;28;20199;-77
2022/02/16 11:08:26;;;;;;;1.10;1.00;;;6.20;99.90;;;;;;5096598;28;20168;-78
2022/02/16 11:10:53;;;;;;;1.33;1.00;;;6.20;99.90;;;;;;5079421;28;20255;-77
2022/02/16 11:13:26;;;;;;;0.80;0.80;;;6.20;99.90;;;;;;5079200;28;20188;-78
2022/02/16 11:15:52;;;;;;;0.73;0.73;;;;;;;;;;5100877;28;20159;-78
2022/02/16 11:18:23;;;;;;;1.37;0.93;;;6.20;99.90;;;;;;5080658;28;20255;-78
2022/02/16 11:21:16;;;;;;;1.57;0.90;;;6.20;99.90;;;;;;5078599;28;20291;-77
2022/02/16 11:23:49;;;;;;;0.80;0.80;;;6.30;99.90;;;;;;5097074;28;20207;-77
2022/02/16 11:26:34;;;;;;;0.73;0.73;;;6.50;99.90;;;;;;5080382;28;20164;-77
2022/02/16 11:29:04;;;;;;;0.73;0.73;;;6.50;99.90;;;;;;5080389;28;20204;-78
2022/02/16 11:31:39;;;;;;;0.90;0.87;;;6.50;99.90;;;;;;5098648;28;20526;-78
2022/02/16 11:34:10;;;;;;;1.30;1.00;;;6.50;99.90;;;;;;5099101;28;20182;-78
2022/02/16 11:36:45;;;;;;;0.87;0.87;;;6.60;99.90;;;;;;5098156;28;20176;-78
2022/02/16 11:39:11;;;;;;;1.00;0.80;;;6.50;99.90;;;;;;5097425;28;20202;-77
2022/02/16 11:41:55;;;;;;;1.00;1.00;;;6.50;99.90;;;;;;5099855;28;20225;-78
2022/02/16 11:44:20;;;;;;;0.77;0.77;;;6.60;99.90;;;;;;5097116;28;20172;-77
2022/02/16 11:46:54;;;;;;;0.80;0.80;;;6.60;99.90;;;;;;5113980;28;20263;-77
2022/02/16 11:49:29;;;;;;;0.90;0.90;;;6.50;99.90;;;;;;5087232;28;20207;-78
2022/02/16 11:51:56;;;;;;;2.77;0.93;;;6.40;99.90;;;;;;5102865;28;20164;-78
2022/02/16 11:54:42;;;;;;;1.00;1.00;;;6.50;99.90;;;;;;5103747;28;20170;-78
2022/02/16 11:57:26;;;;;;;1.07;1.00;;;6.90;99.90;;;;;;5100875;28;20179;-77
2022/02/16 11:59:56;;;;;;;1.10;1.00;;;6.70;99.90;;;;;;5099695;28;20252;-78
2022/02/16 12:02:21;;;;;;;0.80;0.80;;;6.80;99.90;;;;;;5083622;28;20637;-78
2022/02/16 12:04:49;;;;;;;1.13;1.03;;;6.90;99.90;;;;;;5101684;28;20179;-78
2022/02/16 12:07:22;;;;;;;0.90;0.90;;;6.90;99.90;;;;;;5099251;28;20228;-78
2022/02/16 12:10:22;;;;;;;0.87;0.87;;;7.00;99.90;;;;;;5079983;28;20207;-78
2022/02/16 12:12:48;;;;;;;0.80;0.80;;;6.90;99.90;;;;;;5066701;28;20207;-79
2022/02/16 12:15:18;;;;;;;1.77;1.30;;;6.80;99.90;;;;;;5101263;28;20164;-79
2022/02/16 12:17:43;;;;;;;2.07;1.30;;;6.80;99.90;;;;;;5080246;28;20702;-79
2022/02/16 12:20:10;;;;;;;3.67;0.97;;;6.70;99.90;;;;;;5100277;28;20195;-78
2022/02/16 12:22:36;;;;;;;1.10;1.00;;;6.90;99.90;;;;;;5106555;28;20164;-78
2022/02/16 12:25:14;;;;;;;1.47;1.30;;;7.30;99.90;;;;;;5102159;28;20186;-78
2022/02/16 12:27:41;;;;;;;1.30;1.20;;;7.30;99.90;;;;;;5077543;28;20164;-77
2022/02/16 12:30:07;;;;;;;1.40;1.30;;;7.40;99.90;;;;;;5095909;28;20206;-79
2022/02/16 12:32:33;;;;;;;1.03;1.00;;;7.20;99.90;;;;;;5096430;28;20232;-77
2022/02/16 12:35:02;;;;;;;0.93;0.93;;;7.30;99.90;;;;;;5095781;28;20166;-77
2022/02/16 12:37:28;;;;;;;1.80;1.70;;;7.30;99.90;;;;;;5100170;28;20225;-78
2022/02/16 12:40:03;;;;;;;1.07;1.00;;;7.60;99.90;;;;;;5095531;28;20306;-78
2022/02/16 12:42:31;;;;;;;1.53;0.93;;;7.60;99.90;;;;;;5102723;28;20178;-78
2022/02/16 12:44:58;;;;;;;0.73;0.73;;;7.50;99.90;;;;;;5096594;28;20178;-78
2022/02/16 12:47:24;;;;;;;1.27;1.10;;;7.50;99.90;;;;;;5082234;28;20241;-78
2022/02/16 12:49:50;;;;;;;1.00;0.90;;;7.50;99.90;;;;;;5083060;28;20676;-78
2022/02/16 12:52:16;;;;;;;1.00;1.00;;;7.40;99.90;;;;;;5100100;28;20225;-78
2022/02/16 12:54:42;;;;;;;1.20;1.10;;;7.40;99.90;;;;;;5098731;28;20670;-78
2022/02/16 12:57:10;;;;;;;0.90;0.90;;;7.40;99.90;;;;;;5080093;28;20182;-79
2022/02/16 13:00:46;;;;;;;0.90;0.90;;;7.30;99.90;;;;;;5099826;28;20195;-78
2022/02/16 13:02:25;;;;;;;0.93;0.93;;;7.30;99.90;;;;;;5100104;28;20178;-78
2022/02/16 13:04:54;;;;;;;0.80;0.80;;;7.30;99.90;;;;;;5097997;28;20256;-78
2022/02/16 13:07:22;;;;;;;0.87;0.87;;;7.40;99.90;;;;;;5083608;28;20186;-78
2022/02/16 13:09:48;;;;;;;1.17;1.07;;;7.50;99.90;;;;;;5099270;28;20210;-78
2022/02/16 13:12:40;;;;;;;0.80;0.80;;;7.40;99.90;;;;;;5096033;28;20197;-78
2022/02/16 13:15:08;;;;;;;1.73;1.43;;;7.70;99.90;;;;;;5080794;28;20176;-78
2022/02/16 13:17:55;;;;;;;2.00;1.13;;;7.90;99.90;;;;;;5099848;28;20590;-78
2022/02/16 13:20:32;;;;;;;0.50;0.50;;;7.80;99.90;;;;;;5098012;28;20273;-77
2022/02/16 13:23:17;;;;;;;1.10;1.03;;;8.00;99.90;;;;;;5077227;28;20624;-78
2022/02/16 13:25:44;;;;;;;1.43;1.10;;;8.10;99.90;;;;;;5099210;28;20183;-78
2022/02/16 13:28:16;;;;;;;0.70;0.70;;;8.10;99.90;;;;;;5084747;28;20263;-77
2022/02/16 13:30:44;;;;;;;4.07;1.50;;;8.50;99.90;;;;;;5081204;28;20202;-77
2022/02/16 13:33:18;;;;;;;2.93;1.83;;;8.70;99.90;;;;;;5098505;28;20176;-78
2022/02/16 13:35:52;;;;;;;3.90;2.53;;;8.40;99.90;;;;;;5081824;28;20173;-78
2022/02/16 13:38:27;;;;;;;5.77;3.37;;;8.30;99.90;;;;;;5098304;28;20156;-77
2022/02/16 13:41:11;;;;;;;1.53;1.10;;;8.20;99.90;;;;;;5095017;28;20218;-77
2022/02/16 13:43:56;;;;;;;1.20;1.10;;;8.30;99.90;;;;;;5094678;28;20165;-78
2022/02/16 13:46:26;;;;;;;1.13;1.03;;;8.10;99.90;;;;;;5098465;28;20153;-78
2022/02/16 13:49:06;;;;;;;1.87;1.00;;;8.00;99.90;;;;;;5097396;28;20200;-78
2022/02/16 13:51:32;;;;;;;1.17;1.07;;;8.00;99.90;;;;;;5080609;28;20156;-78
2022/02/16 13:53:57;;;;;;;0.70;0.70;;;8.10;99.90;;;;;;5098088;28;20258;-78
2022/02/16 13:56:24;;;;;;;1.13;1.03;;;8.10;99.90;;;;;;5099414;28;20164;-78
2022/02/16 13:58:51;;;;;;;0.93;0.83;;;8.10;99.90;;;;;;5083704;28;20206;-78
2022/02/16 14:01:18;;;;;;;1.00;0.90;;;8.10;99.90;;;;;;5101204;28;20172;-78
2022/02/16 14:04:01;;;;;;;0.93;0.93;;;8.10;99.90;;;;;;5083945;28;20657;-78
2022/02/16 14:06:28;;;;;;;1.50;0.70;;;8.10;99.90;;;;;;5082852;28;20172;-78
2022/02/16 14:08:53;;;;;;;1.13;1.10;;;8.10;99.90;;;;;;5102232;28;20257;-77
2022/02/16 14:11:23;;;;;;;1.37;1.00;;;8.10;99.90;;;;;;5101018;28;20176;-78
2022/02/16 14:13:50;;;;;;;0.93;0.93;;;8.10;99.90;;;;;;5083058;28;20172;-78
2022/02/16 14:16:20;;;;;;;0.87;0.87;;;8.20;99.90;;;;;;5101945;28;20176;-78
2022/02/16 14:19:22;;;;;;;1.17;0.90;;;8.10;99.90;;;;;;5094109;28;20238;-78
2022/02/16 14:21:31;;;;;;;0.80;0.80;;;8.20;99.90;;;;;;5106479;28;20190;-78
2022/02/16 14:23:58;;;;;;;1.00;1.00;;;8.10;99.90;;;;;;5080411;28;20259;-77
2022/02/16 14:26:24;;;;;;;0.93;0.93;;;8.20;99.90;;;;;;5098823;28;20497;-78
2022/02/16 14:28:50;;;;;;;0.90;0.70;;;8.10;99.90;;;;;;5099704;28;20221;-78
2022/02/16 14:31:15;;;;;;;2.53;0.80;;;8.10;99.90;;;;;;5099573;28;20222;-77
2022/02/16 14:33:41;;;;;;;2.00;1.30;;;8.00;99.90;;;;;;5099895;28;20171;-78
2022/02/16 14:36:07;;;;;;;1.10;0.97;;;8.00;99.90;;;;;;5103136;28;20175;-78
2022/02/16 14:38:34;;;;;;;1.80;1.30;;;7.80;99.90;;;;;;5100252;28;20201;-79
2022/02/16 14:40:59;;;;;;;1.20;1.10;;;7.80;99.90;;;;;;5099680;28;20174;-78
2022/02/16 14:43:25;;;;;;;1.57;1.17;;;7.70;99.90;;;;;;5080100;28;20255;-79
2022/02/16 14:45:51;;;;;;;0.90;0.90;;;7.70;99.90;;;;;;5097675;28;20179;-78
2022/02/16 14:48:17;;;;;;;0.80;0.80;;;;;;;;;;5079448;28;20181;-78
2022/02/16 14:50:43;;;;;;;0.90;0.90;;;7.60;99.90;;;;;;5096762;28;20237;-78
2022/02/16 14:53:08;;;;;;;1.10;0.80;;;7.50;99.90;;;;;;5099710;28;20174;-78
2022/02/16 14:55:36;;;;;;;1.50;0.80;;;7.60;99.90;;;;;;5098663;28;20168;-77
2022/02/16 14:58:05;;;;;;;0.83;0.83;;;7.60;99.90;;;;;;5096926;28;20760;-77
2022/02/16 15:00:34;;;;;;;2.13;1.00;;;7.60;99.90;;;;;;5097920;28;20272;-78
2022/02/16 15:03:00;;;;;;;1.00;1.00;;;7.60;99.90;;;;;;5078602;28;20215;-77
2022/02/16 15:05:27;;;;;;;0.80;0.80;;;7.50;99.90;;;;;;5097148;28;20184;-77
2022/02/16 15:07:53;;;;;;;1.90;1.00;;;7.60;99.90;;;;;;5078728;28;20259;-78
2022/02/16 15:10:19;;;;;;;0.70;0.70;;;7.50;99.90;;;;;;5097613;28;20237;-78
2022/02/16 15:12:45;;;;;;;1.10;1.00;;;7.50;99.90;;;;;;5097462;28;20183;-77
2022/02/16 15:15:11;;;;;;;1.07;0.97;;;7.50;99.90;;;;;;5096258;28;20182;-78
2022/02/16 15:17:37;;;;;;;1.13;1.03;;;7.60;99.90;;;;;;5096718;28;20204;-78
2022/02/16 15:20:05;;;;;;;1.23;0.70;;;7.60;99.90;;;;;;5097951;28;20253;-78
2022/02/16 15:22:32;;;;;;;1.00;0.90;;;7.60;99.90;;;;;;5078010;28;20183;-78
2022/02/16 15:25:01;;;;;;;1.80;1.10;;;7.60;99.90;;;;;;5079569;28;20269;-77
2022/02/16 15:27:32;;;;;;;1.00;0.90;;;7.60;99.90;;;;;;5077787;28;20205;-78
2022/02/16 15:29:59;;;;;;;1.03;0.60;;;7.60;99.90;;;;;;5096677;28;20309;-78
2022/02/16 15:32:26;;;;;;;0.70;0.70;;;7.60;99.90;;;;;;5097809;28;20178;-78
2022/02/16 15:34:52;;;;;;;0.90;0.90;;;7.60;99.90;;;;;;5080218;28;20225;-78
2022/02/16 15:37:18;;;;;;;1.17;1.03;;;7.60;99.90;;;;;;5079716;28;20272;-78
2022/02/16 15:39:46;;;;;;;0.80;0.80;;;7.60;99.90;;;;;;5098732;28;20200;-79
2022/02/16 15:42:16;;;;;;;1.30;1.20;;;7.50;99.90;;;;;;5079880;28;20194;-78
2022/02/16 15:44:43;;;;;;;1.20;1.10;;;7.60;99.90;;;;;;5098012;28;20166;-79
2022/02/16 15:47:11;;;;;;;1.10;1.00;;;7.50;99.90;;;;;;5098828;28;20178;-78
2022/02/16 15:49:37;;;;;;;2.17;1.20;;;7.50;99.90;;;;;;5097145;28;20597;-78
2022/02/16 15:52:03;;;;;;;1.57;1.47;;;7.50;99.90;;;;;;5096339;28;20664;-78
2022/02/16 15:54:29;;;;;;;1.30;1.20;;;7.50;99.90;;;;;;5096182;28;20202;-78
2022/02/16 15:56:55;;;;;;;0.90;0.90;;;7.50;99.90;;;;;;5098452;28;20607;-77
2022/02/16 15:59:21;;;;;;;1.40;1.30;;;7.50;99.90;;;;;;5095403;28;20255;-77
2022/02/16 16:01:46;;;;;;;0.90;0.90;;;7.50;99.90;;;;;;5097404;28;20182;-78
2022/02/16 16:04:12;;;;;;;0.80;0.80;;;7.50;99.90;;;;;;5096036;28;20178;-78
2022/02/16 16:06:37;;;;;;;1.20;1.10;;;7.60;99.90;;;;;;5097201;28;20179;-78
2022/02/16 16:09:08;;;;;;;1.47;1.33;;;7.60;99.90;;;;;;5097747;28;20243;-78
2022/02/16 16:11:34;;;;;;;1.03;1.03;;;7.60;99.90;;;;;;5095983;28;20179;-78
2022/02/16 16:14:00;;;;;;;2.43;1.20;;;7.50;99.90;;;;;;5081020;28;20201;-78
2022/02/16 16:16:29;;;;;;;2.27;1.83;;;7.60;99.90;;;;;;5097821;28;20644;-77
2022/02/16 16:18:58;;;;;;;1.73;1.20;;;7.50;99.90;;;;;;5077841;28;20715;-78
2022/02/16 16:21:25;;;;;;;0.90;0.90;;;7.50;99.90;;;;;;5078038;28;20193;-78
2022/02/16 16:23:51;;;;;;;1.20;1.00;;;7.60;99.90;;;;;;5094956;28;20592;-77
2022/02/16 16:26:17;;;;;;;0.90;0.90;;;7.60;99.90;;;;;;5096324;28;20196;-77
2022/02/16 16:28:42;;;;;;;3.00;1.30;;;7.60;99.90;;;;;;5096624;28;20334;-78
2022/02/16 16:31:08;;;;;;;2.60;2.37;;;7.60;99.90;;;;;;5095691;28;20175;-77
2022/02/16 16:33:34;;;;;;;1.00;1.00;;;;;;;;;;5095024;28;20179;-77
2022/02/16 16:36:00;;;;;;;1.80;1.70;;;7.60;99.90;;;;;;5094469;28;20635;-77
2022/02/16 16:38:26;;;;;;;1.20;1.10;;;7.60;99.90;;;;;;5094805;28;20716;-77
2022/02/16 16:40:52;;;;;;;14.03;9.60;;;7.60;99.90;;;;;;5076854;28;20178;-77
2022/02/16 16:43:17;;;;;;;4.97;3.47;;;7.60;99.90;;;;;;5094937;28;20183;-78
2022/02/16 16:45:43;;;;;;;1.37;1.27;;;7.70;99.90;;;;;;5095298;28;20273;-77
2022/02/16 16:48:09;;;;;;;3.10;2.13;;;7.70;99.90;;;;;;5079217;28;20190;-78
2022/02/16 16:50:35;;;;;;;5.93;3.80;;;7.70;99.90;;;;;;5079564;28;20297;-79
2022/02/16 16:53:01;;;;;;;0.97;0.97;;;7.70;99.90;;;;;;5078703;28;20183;-78
2022/02/16 16:55:28;;;;;;;1.30;1.20;;;7.80;99.90;;;;;;5097491;28;20206;-78
2022/02/16 16:57:54;;;;;;;2.37;2.03;;;7.80;99.90;;;;;;5096169;28;20263;-78
2022/02/16 17:00:26;;;;;;;1.47;1.37;;;7.90;99.90;;;;;;5077067;28;20202;-78
2022/02/16 17:02:53;;;;;;;1.90;1.67;;;7.80;99.90;;;;;;5078072;28;20169;-77
2022/02/16 17:05:19;;;;;;;3.23;2.10;;;7.90;99.90;;;;;;5076907;28;20187;-77
2022/02/16 17:07:45;;;;;;;2.03;1.60;;;7.90;99.90;;;;;;5094789;28;20182;-78
2022/02/16 17:10:11;;;;;;;1.83;1.60;;;7.90;99.90;;;;;;5096620;28;20209;-77
2022/02/16 17:12:36;;;;;;;1.60;1.50;;;7.90;99.90;;;;;;5097569;28;20208;-78
2022/02/16 17:15:03;;;;;;;2.73;2.10;;;7.90;99.90;;;;;;5095289;28;20201;-78
2022/02/16 17:17:29;;;;;;;1.33;1.20;;;7.80;99.90;;;;;;5095086;28;20266;-78
2022/02/16 17:19:55;;;;;;;1.53;1.43;;;;;;;;;;5094969;28;20202;-78
2022/02/16 17:22:21;;;;;;;1.60;1.50;;;7.90;99.90;;;;;;5094204;28;20185;-77
2022/02/16 17:24:46;;;;;;;1.20;1.10;;;7.90;99.90;;;;;;5095483;28;20610;-78
2022/02/16 17:27:13;;;;;;;1.77;1.27;;;7.90;99.90;;;;;;5077625;28;20188;-78
2022/02/16 17:29:39;;;;;;;4.53;1.60;;;8.00;99.90;;;;;;5075621;28;20214;-79
2022/02/16 17:32:05;;;;;;;4.67;2.30;;;8.00;99.90;;;;;;5077632;28;20180;-79
2022/02/16 17:34:30;;;;;;;36.73;15.37;;;8.00;99.90;;;;;;5099128;28;20244;-78
2022/02/16 17:36:56;;;;;;;2.20;1.93;;;8.00;99.90;;;;;;5098518;28;20175;-77
2022/02/16 17:39:22;;;;;;;4.20;3.03;;;8.00;99.90;;;;;;5098310;28;20285;-78
2022/02/16 17:41:47;;;;;;;1.27;1.10;;;8.00;99.90;;;;;;5084094;28;20191;-78
2022/02/16 17:46:58;;;;;;;1.27;1.17;;;8.00;99.90;;;;;;5098550;28;20179;-78
2022/02/16 17:49:25;;;;;;;1.10;1.00;;;7.90;99.90;;;;;;5099111;28;20215;-78
2022/02/16 17:51:51;;;;;;;13.97;7.70;;;7.90;99.90;;;;;;5098215;28;20256;-78
2022/02/16 17:54:18;;;;;;;4.53;2.60;;;7.90;99.90;;;;;;5097753;28;20652;-77
2022/02/16 17:56:45;;;;;;;1.40;1.30;;;7.80;99.90;;;;;;5100864;28;20629;-78
2022/02/16 17:59:11;;;;;;;1.60;1.20;;;7.80;99.90;;;;;;5099368;28;20287;-78
2022/02/16 18:01:37;;;;;;;2.47;1.00;;;7.70;99.90;;;;;;5082695;28;20248;-78
2022/02/16 18:04:02;;;;;;;2.13;1.83;;;7.80;99.90;;;;;;5101368;28;20209;-78
2022/02/16 18:06:28;;;;;;;1.50;1.40;;;7.80;99.90;;;;;;5100080;28;20212;-80
2022/02/16 18:08:55;;;;;;;3.97;1.80;;;7.80;99.90;;;;;;5103049;28;20213;-78
2022/02/16 18:11:21;;;;;;;1.93;0.90;;;7.90;99.90;;;;;;5100102;28;20173;-78
2022/02/16 18:13:46;;;;;;;1.10;1.00;;;7.90;99.90;;;;;;5103235;28;20739;-79
2022/02/16 18:16:12;;;;;;;0.90;0.90;;;8.00;99.90;;;;;;5107543;28;20181;-78
2022/02/16 18:18:40;;;;;;;1.20;1.10;;;8.00;99.90;;;;;;5086923;28;20637;-80
2022/02/16 18:21:07;;;;;;;1.00;1.00;;;8.00;99.90;;;;;;5088298;28;20258;-79
2022/02/16 18:23:33;;;;;;;1.53;1.43;;;8.00;99.90;;;;;;5086906;28;20174;-79
2022/02/16 18:25:59;;;;;;;1.17;1.10;;;8.00;99.90;;;;;;5101923;28;20172;-77
2022/02/16 18:28:25;;;;;;;1.30;1.20;;;8.00;99.90;;;;;;5098529;28;20596;-78
2022/02/16 18:30:50;;;;;;;1.17;1.10;;;8.00;99.90;;;;;;5100234;28;20219;-78
2022/02/16 18:33:18;;;;;;;0.70;0.70;;;8.00;99.90;;;;;;5100077;28;20182;-77
2022/02/16 18:35:48;;;;;;;1.83;1.40;;;8.10;99.90;;;;;;5080758;28;20187;-77
2022/02/16 18:38:15;;;;;;;3.03;1.00;;;8.10;99.90;;;;;;5097592;28;20700;-78
2022/02/16 18:40:41;;;;;;;1.20;1.10;;;8.10;99.90;;;;;;5097777;28;20204;-77
2022/02/16 18:43:06;;;;;;;2.00;1.53;;;8.00;99.90;;;;;;5097079;28;20538;-77
2022/02/16 18:45:33;;;;;;;1.27;1.17;;;8.00;99.90;;;;;;5099360;28;20185;-77
2022/02/16 18:47:58;;;;;;;1.07;1.00;;;8.10;99.90;;;;;;5100394;28;20182;-76
2022/02/16 18:50:24;;;;;;;0.77;0.77;;;8.00;99.90;;;;;;5097300;28;20206;-76
2022/02/16 18:52:50;;;;;;;1.80;1.13;;;8.00;99.90;;;;;;5097656;28;20531;-78
2022/02/16 18:55:16;;;;;;;0.90;0.90;;;8.00;99.90;;;;;;5081800;28;20181;-78
2022/02/16 18:57:42;;;;;;;0.97;0.90;;;8.10;99.90;;;;;;5098987;28;20183;-78